Time;durP1;ratioP1;P1;durP2;ratioP2;P2;SDS_P1;SDS_P2;PMS_P1;PMS_P2;Temp;Humidity;BMP_temperature;BMP_pressure;BME280_temperature;BME280_humidity;BME280_pressure;Samples;Min_cycle;Max_cycle;Signal;HPM_P1;HPM_P2
2023/08/18 00:00:11;;;;;;;6.60;5.30;;;;;;;22.65;89.42;98201.72;4173437;28;20641;-81
2023/08/18 00:02:15;;;;;;;7.20;6.50;;;;;;;22.59;91.06;98198.94;4169465;28;20662;-84
2023/08/18 00:04:18;;;;;;;6.73;6.03;;;;;;;22.55;93.07;98200.28;4171095;28;20668;-82
2023/08/18 00:06:21;;;;;;;8.17;6.70;;;;;;;22.49;93.91;98196.50;4168021;28;20636;-82
2023/08/18 00:08:24;;;;;;;7.47;5.77;;;;;;;22.41;95.14;98204.50;4174294;28;20715;-82
2023/08/18 00:10:27;;;;;;;8.30;6.07;;;;;;;22.38;95.69;98204.03;4173204;28;21010;-82
2023/08/18 00:12:30;;;;;;;7.93;6.40;;;;;;;22.35;96.55;98199.91;4174719;28;20634;-84
2023/08/18 00:14:34;;;;;;;10.67;6.93;;;;;;;22.32;96.79;98197.59;4172058;28;20656;-85
2023/08/18 00:16:39;;;;;;;8.20;7.23;;;;;;;;;;4172391;28;21013;-85
2023/08/18 00:18:42;;;;;;;9.27;7.43;;;;;;;22.27;98.01;98191.16;4171294;28;21213;-83
2023/08/18 00:20:44;;;;;;;11.13;6.77;;;;;;;22.27;98.63;98201.78;4170119;28;21239;-82
2023/08/18 00:22:47;;;;;;;9.10;7.27;;;;;;;22.25;99.03;98201.97;4178207;28;20636;-84
2023/08/18 00:24:51;;;;;;;8.87;6.83;;;;;;;22.22;99.07;98200.63;4168990;28;20632;-84
2023/08/18 00:26:53;;;;;;;7.10;6.17;;;;;;;22.20;99.70;98202.63;4169859;28;20651;-85
2023/08/18 00:28:56;;;;;;;8.30;6.90;;;;;;;22.15;98.88;98200.47;4166733;28;20641;-84
2023/08/18 00:30:59;;;;;;;6.50;5.80;;;;;;;22.11;99.13;98201.00;4169928;28;20652;-84
2023/08/18 00:33:06;;;;;;;7.77;6.87;;;;;;;22.08;99.32;98196.03;4165585;28;21242;-83
2023/08/18 00:35:09;;;;;;;9.90;6.90;;;;;;;22.03;99.43;98193.06;4170417;28;20682;-84
2023/08/18 00:37:15;;;;;;;8.80;6.73;;;;;;;21.97;99.74;98188.44;4155760;28;20721;-85
2023/08/18 00:39:18;;;;;;;10.63;6.60;;;;;;;21.92;99.70;98186.31;4177038;28;21054;-84
2023/08/18 00:41:21;;;;;;;8.13;5.97;;;;;;;21.90;99.45;98184.81;4171094;28;20641;-83
2023/08/18 00:43:26;;;;;;;7.33;6.50;;;;;;;21.87;99.61;98187.81;4161476;28;20622;-85
2023/08/18 00:45:29;;;;;;;9.53;6.30;;;;;;;21.84;99.64;98188.97;4161817;28;20993;-84
2023/08/18 00:47:33;;;;;;;7.90;5.67;;;;;;;21.84;99.65;98190.81;4174462;28;20649;-83
2023/08/18 00:49:38;;;;;;;7.40;6.57;;;;;;;21.81;99.33;98177.88;4168453;28;20658;-84
2023/08/18 00:51:41;;;;;;;7.40;6.43;;;;;;;21.79;100.00;98185.19;4173399;28;20676;-83
2023/08/18 00:53:46;;;;;;;8.50;7.07;;;;;;;21.76;100.00;98181.03;4169573;28;20675;-83
2023/08/18 00:55:49;;;;;;;10.17;7.70;;;;;;;21.73;100.00;98175.25;4163327;28;20646;-84
2023/08/18 00:57:52;;;;;;;7.67;5.93;;;;;;;21.71;100.00;98181.72;4172633;28;20739;-84
2023/08/18 00:59:57;;;;;;;7.20;6.40;;;;;;;21.66;100.00;98184.91;4174845;28;20633;-83
2023/08/18 01:02:02;;;;;;;9.37;7.50;;;;;;;21.62;100.00;98177.44;4173665;28;20720;-84
2023/08/18 01:04:06;;;;;;;6.90;6.20;;;;;;;21.60;100.00;98180.25;4177503;28;20679;-83
2023/08/18 01:06:10;;;;;;;10.83;7.00;;;;;;;21.58;100.00;98187.59;4169048;28;20614;-84
2023/08/18 01:08:15;;;;;;;7.20;6.47;;;;;;;21.56;100.00;98188.75;4152309;28;20677;-84
2023/08/18 01:10:17;;;;;;;9.87;7.97;;;;;;;21.54;100.00;98186.25;4169944;28;20736;-83
2023/08/18 01:12:24;;;;;;;7.33;6.40;;;;;;;21.52;100.00;98182.13;4160581;28;20756;-84
2023/08/18 01:14:36;;;;;;;7.00;6.17;;;;;;;21.46;100.00;98178.31;4169922;28;21215;-76
2023/08/18 01:16:40;;;;;;;9.50;6.80;;;;;;;21.40;100.00;98186.94;4160148;28;20640;-76
2023/08/18 01:18:44;;;;;;;8.00;6.10;;;;;;;21.35;100.00;98191.09;4158123;28;22096;-76
2023/08/18 01:20:49;;;;;;;8.47;6.43;;;;;;;21.31;100.00;98190.59;4173786;28;20662;-75
2023/08/18 01:22:53;;;;;;;7.70;6.77;;;;;;;21.27;100.00;98184.97;4167832;28;20642;-76
2023/08/18 01:25:00;;;;;;;9.90;6.57;;;;;;;21.26;100.00;98183.31;4163443;28;20616;-77
2023/08/18 01:27:03;;;;;;;8.10;6.67;;;;;;;21.21;100.00;98183.81;4155088;28;20712;-76
2023/08/18 01:29:07;;;;;;;8.97;6.50;;;;;;;21.15;100.00;98188.97;4175897;28;20654;-76
2023/08/18 01:31:15;;;;;;;8.00;6.20;;;;;;;21.10;100.00;98178.03;4170419;28;20704;-77
2023/08/18 01:33:23;;;;;;;8.40;5.97;;;;;;;21.08;100.00;98180.00;4168645;28;20617;-76
2023/08/18 01:35:29;;;;;;;6.40;5.30;;;;;;;21.10;100.00;98178.03;4167027;28;20629;-76
2023/08/18 01:37:32;;;;;;;6.57;3.80;;;;;;;21.12;96.13;98176.84;4163519;28;20600;-76
2023/08/18 01:39:38;;;;;;;7.73;4.10;;;;;;;21.17;94.70;98176.34;4155030;28;20616;-76
2023/08/18 01:41:42;;;;;;;4.30;3.23;;;;;;;21.22;93.43;98171.38;4172063;28;20610;-76
2023/08/18 01:43:45;;;;;;;11.30;3.90;;;;;;;21.27;91.90;98175.16;4166771;28;20634;-77
2023/08/18 01:45:48;;;;;;;6.53;3.53;;;;;;;21.31;92.06;98156.09;4170574;28;20622;-76
2023/08/18 01:47:51;;;;;;;4.23;3.63;;;;;;;21.34;91.97;98163.72;4167103;28;20694;-76
2023/08/18 01:49:55;;;;;;;5.30;4.07;;;;;;;21.37;91.14;98158.06;4165196;28;20632;-76
2023/08/18 01:51:58;;;;;;;4.80;4.07;;;;;;;21.34;91.82;98150.44;4169251;28;20663;-75
2023/08/18 01:54:01;;;;;;;6.60;5.33;;;;;;;21.26;94.59;98149.66;4167068;28;21013;-77
2023/08/18 01:56:06;;;;;;;6.47;5.40;;;;;;;21.22;96.19;98153.63;4167532;28;20628;-76
2023/08/18 01:58:09;;;;;;;9.63;6.00;;;;;;;21.18;96.71;98157.59;4151526;28;20673;-75
2023/08/18 02:00:13;;;;;;;7.10;5.50;;;;;;;21.10;96.81;98151.50;4157374;28;20662;-76
2023/08/18 02:02:24;;;;;;;6.70;5.67;;;;;;;21.06;98.24;98153.63;4150899;28;21234;-77
2023/08/18 02:04:26;;;;;;;7.83;5.67;;;;;;;21.05;98.66;98151.16;4171733;28;21335;-76
2023/08/18 02:06:31;;;;;;;5.10;4.60;;;;;;;21.01;99.08;98153.31;4159379;28;21067;-77
2023/08/18 02:08:34;;;;;;;6.60;5.50;;;;;;;20.99;98.09;98146.53;4154729;28;21182;-76
2023/08/18 02:10:38;;;;;;;8.67;5.50;;;;;;;20.93;98.42;98141.91;4169239;28;20617;-76
2023/08/18 02:12:41;;;;;;;14.03;5.53;;;;;;;20.90;99.74;98153.66;4168968;28;20658;-76
2023/08/18 02:14:44;;;;;;;6.00;5.30;;;;;;;20.88;100.00;98153.03;4154906;28;21274;-76
2023/08/18 02:16:49;;;;;;;8.50;5.97;;;;;;;20.87;99.72;98147.88;4184271;28;21106;-75
2023/08/18 02:18:52;;;;;;;8.60;5.27;;;;;;;20.86;99.95;98151.50;4167994;28;20667;-77
2023/08/18 02:20:56;;;;;;;6.07;5.20;;;;;;;20.84;99.82;98156.16;4175883;28;20770;-75
2023/08/18 02:22:59;;;;;;;6.63;5.93;;;;;;;20.81;100.00;98149.38;4166216;28;20619;-75
2023/08/18 02:25:03;;;;;;;9.87;6.70;;;;;;;20.77;99.11;98155.16;4153459;28;21831;-75
2023/08/18 02:27:07;;;;;;;6.97;5.93;;;;;;;20.76;100.00;98150.84;4176773;28;21261;-77
2023/08/18 02:29:12;;;;;;;7.73;5.60;;;;;;;20.74;100.00;98150.19;4173979;28;20709;-77
2023/08/18 02:31:14;;;;;;;6.57;5.87;;;;;;;20.70;100.00;98140.91;4175140;28;20665;-76
2023/08/18 02:33:18;;;;;;;6.30;5.67;;;;;;;20.70;100.00;98148.84;4175479;28;20666;-75
2023/08/18 02:35:22;;;;;;;11.70;7.27;;;;;;;20.67;100.00;98143.03;4167257;28;20717;-76
2023/08/18 02:37:25;;;;;;;6.73;5.60;;;;;;;20.63;100.00;98144.38;4178556;28;20646;-77
2023/08/18 02:39:30;;;;;;;8.40;5.90;;;;;;;20.58;100.00;98136.91;4163636;28;20642;-76
2023/08/18 02:41:33;;;;;;;8.13;5.70;;;;;;;20.54;100.00;98140.06;4173724;28;20651;-76
2023/08/18 02:43:36;;;;;;;8.30;5.33;;;;;;;20.52;100.00;98134.06;4172246;28;20643;-76
2023/08/18 02:45:40;;;;;;;7.13;6.30;;;;;;;20.50;100.00;98139.53;4162019;28;20618;-76
2023/08/18 02:47:43;;;;;;;8.17;5.63;;;;;;;20.49;100.00;98139.69;4179089;28;20746;-76
2023/08/18 02:49:47;;;;;;;6.90;6.30;;;;;;;20.44;100.00;98134.06;4156162;28;20667;-76
2023/08/18 02:51:50;;;;;;;6.97;5.73;;;;;;;20.41;100.00;98135.22;4178520;28;20676;-75
2023/08/18 02:53:53;;;;;;;7.20;5.40;;;;;;;20.37;100.00;98133.91;4175903;28;20625;-77
2023/08/18 02:55:58;;;;;;;8.07;5.70;;;;;;;20.35;100.00;98130.56;4163099;28;20660;-75
2023/08/18 02:58:01;;;;;;;6.30;5.50;;;;;;;20.35;100.00;98127.09;4169031;28;20630;-75
2023/08/18 03:00:05;;;;;;;7.07;6.13;;;;;;;20.35;100.00;98127.09;4172967;28;20649;-75
2023/08/18 03:02:10;;;;;;;7.53;5.80;;;;;;;20.35;100.00;98132.41;4178950;28;20659;-75
2023/08/18 03:04:14;;;;;;;5.77;5.17;;;;;;;20.30;100.00;98113.53;4162671;28;21249;-76
2023/08/18 03:06:17;;;;;;;7.80;6.40;;;;;;;20.27;100.00;98115.69;4161773;28;20682;-76
2023/08/18 03:08:20;;;;;;;7.93;6.13;;;;;;;20.24;100.00;98123.97;4152134;28;20670;-76
2023/08/18 03:10:24;;;;;;;9.10;6.53;;;;;;;20.19;100.00;98113.00;4175123;28;20721;-76
2023/08/18 03:12:28;;;;;;;8.10;6.57;;;;;;;20.13;100.00;98111.84;4171346;28;20662;-77
2023/08/18 03:14:31;;;;;;;8.20;6.27;;;;;;;20.08;100.00;98110.69;4173000;28;20680;-75
2023/08/18 03:16:34;;;;;;;8.30;6.03;;;;;;;20.03;100.00;98111.16;4169867;28;21070;-76
2023/08/18 03:18:39;;;;;;;7.40;6.20;;;;;;;20.00;100.00;98114.13;4173929;28;21008;-76
2023/08/18 03:20:43;;;;;;;7.50;6.00;;;;;;;20.00;100.00;98110.66;4161216;28;20676;-77
2023/08/18 03:22:47;;;;;;;7.33;5.73;;;;;;;19.98;100.00;98118.78;4163011;28;20636;-76
2023/08/18 03:24:50;;;;;;;7.70;6.10;;;;;;;19.96;100.00;98117.25;4176839;28;20622;-78
2023/08/18 03:26:53;;;;;;;8.10;6.20;;;;;;;19.94;100.00;98125.38;4169707;28;20639;-75
2023/08/18 03:28:57;;;;;;;9.07;6.47;;;;;;;19.94;100.00;98129.84;4168298;28;20751;-75
2023/08/18 03:30:59;;;;;;;10.73;6.63;;;;;;;19.94;100.00;98129.84;4170887;28;20622;-76
2023/08/18 03:33:03;;;;;;;8.20;7.17;;;;;;;19.93;100.00;98122.88;4171572;28;20669;-76
2023/08/18 03:35:08;;;;;;;7.90;6.00;;;;;;;19.89;100.00;98124.19;4174242;28;20645;-76
2023/08/18 03:37:11;;;;;;;9.40;6.40;;;;;;;19.87;100.00;98120.88;4162891;28;20669;-76
2023/08/18 03:39:16;;;;;;;7.27;6.30;;;;;;;19.85;100.00;98128.94;4179135;28;20638;-75
2023/08/18 03:41:19;;;;;;;6.70;6.00;;;;;;;19.83;100.00;98123.97;4162459;28;20633;-78
2023/08/18 03:43:22;;;;;;;6.57;5.23;;;;;;;19.81;100.00;98128.63;4181345;28;20678;-76
2023/08/18 03:45:26;;;;;;;12.00;6.60;;;;;;;19.78;100.00;98127.09;4172148;28;20668;-75
2023/08/18 03:47:30;;;;;;;7.10;6.20;;;;;;;19.78;100.00;98124.47;4177135;28;20617;-76
2023/08/18 03:49:34;;;;;;;7.93;6.43;;;;;;;19.78;100.00;98126.28;4176167;28;21355;-75
2023/08/18 03:51:39;;;;;;;6.53;5.80;;;;;;;19.77;100.00;98122.81;4176571;28;20713;-76
2023/08/18 03:53:43;;;;;;;10.87;5.80;;;;;;;19.77;100.00;98128.13;4168451;28;21269;-76
2023/08/18 03:55:50;;;;;;;10.10;6.10;;;;;;;19.76;100.00;98128.28;4156917;28;20645;-75
2023/08/18 03:57:53;;;;;;;8.87;6.10;;;;;;;19.76;100.00;98130.94;4171573;28;20691;-76
2023/08/18 03:59:56;;;;;;;6.80;6.10;;;;;;;19.75;100.00;98130.06;4167544;28;20741;-75
2023/08/18 04:02:00;;;;;;;6.87;5.90;;;;;;;19.73;100.00;98121.47;4160353;28;21066;-76
2023/08/18 04:04:04;;;;;;;8.27;5.77;;;;;;;19.71;100.00;98128.75;4161550;28;20669;-75
2023/08/18 04:06:07;;;;;;;7.60;6.23;;;;;;;19.69;100.00;98128.06;4172431;28;21061;-75
2023/08/18 04:08:11;;;;;;;9.47;6.90;;;;;;;19.69;100.00;98124.59;4168129;28;20642;-76
2023/08/18 04:10:14;;;;;;;7.87;5.63;;;;;;;19.69;100.00;98133.34;4168079;28;20625;-76
2023/08/18 04:12:17;;;;;;;7.13;5.60;;;;;;;19.67;100.00;98121.28;4174832;28;20636;-76
2023/08/18 04:14:20;;;;;;;9.50;5.93;;;;;;;19.64;100.00;98117.13;4176200;28;21015;-76
2023/08/18 04:16:22;;;;;;;6.73;5.23;;;;;;;19.62;100.00;98116.47;4171612;28;21220;-76
2023/08/18 04:18:26;;;;;;;6.60;5.90;;;;;;;19.61;100.00;98116.63;4156779;28;21313;-75
2023/08/18 04:20:30;;;;;;;9.00;5.90;;;;;;;19.58;100.00;98125.72;4171626;28;20663;-75
2023/08/18 04:22:33;;;;;;;6.80;6.00;;;;;;;19.58;100.00;98122.25;4167632;28;20632;-76
2023/08/18 04:24:38;;;;;;;8.27;5.97;;;;;;;19.57;100.00;98126.69;4161141;28;21060;-76
2023/08/18 04:26:41;;;;;;;6.83;5.77;;;;;;;19.55;100.00;98128.69;4160827;28;20683;-76
2023/08/18 04:28:46;;;;;;;6.13;5.13;;;;;;;19.54;100.00;98129.66;4158780;28;20626;-75
2023/08/18 04:30:49;;;;;;;8.17;5.60;;;;;;;19.55;100.00;98125.22;4170632;28;20636;-75
2023/08/18 04:33:13;;;;;;;7.90;6.13;;;;;;;19.56;100.00;98119.75;4169258;28;20660;-76
2023/08/18 04:35:18;;;;;;;7.07;5.80;;;;;;;19.56;100.00;98125.06;4152702;28;20634;-75
2023/08/18 04:37:22;;;;;;;7.10;6.40;;;;;;;19.56;100.00;98125.06;4165454;28;20630;-76
2023/08/18 04:39:25;;;;;;;8.00;5.80;;;;;;;19.56;100.00;98127.69;4160531;28;20629;-76
2023/08/18 04:41:32;;;;;;;6.10;5.50;;;;;;;19.53;100.00;98130.66;4176512;28;20630;-76
2023/08/18 04:43:36;;;;;;;8.70;5.97;;;;;;;19.52;100.00;98131.63;4185253;28;20985;-75
2023/08/18 04:45:39;;;;;;;6.93;6.23;;;;;;;19.54;100.00;98134.13;4167398;28;21243;-77
2023/08/18 04:47:45;;;;;;;10.50;6.40;;;;;;;19.55;100.00;98139.25;4168654;28;20665;-76
2023/08/18 04:49:49;;;;;;;7.67;5.40;;;;;;;19.53;100.00;98140.41;4167332;28;20638;-76
2023/08/18 04:51:52;;;;;;;8.00;6.43;;;;;;;19.52;100.00;98139.56;4163573;28;20668;-76
2023/08/18 04:53:55;;;;;;;8.13;5.80;;;;;;;19.53;100.00;98143.03;4172610;28;21116;-76
2023/08/18 04:56:02;;;;;;;7.10;5.80;;;;;;;19.55;100.00;98146.38;4173433;28;20644;-76
2023/08/18 04:58:12;;;;;;;6.73;6.03;;;;;;;19.56;100.00;98146.22;4161050;28;20668;-77
2023/08/18 05:00:15;;;;;;;9.07;6.67;;;;;;;19.56;100.00;98148.88;4168256;28;20653;-75
2023/08/18 05:02:18;;;;;;;8.90;6.30;;;;;;;19.58;100.00;98152.19;4154322;28;21639;-75
2023/08/18 05:04:22;;;;;;;8.70;6.10;;;;;;;19.60;100.00;98154.66;4167827;28;20676;-76
2023/08/18 05:06:25;;;;;;;7.80;6.20;;;;;;;19.61;100.00;98151.88;4166559;28;20996;-76
2023/08/18 05:08:28;;;;;;;9.20;6.83;;;;;;;19.62;100.00;98161.47;4168578;28;20632;-76
2023/08/18 05:10:32;;;;;;;7.93;6.23;;;;;;;19.64;100.00;98158.66;4169264;28;20616;-77
2023/08/18 05:12:35;;;;;;;7.80;6.03;;;;;;;19.68;100.00;98163.47;4174452;28;20991;-76
2023/08/18 05:14:40;;;;;;;9.70;6.07;;;;;;;19.72;100.00;98162.16;4171376;28;20665;-76
2023/08/18 05:16:43;;;;;;;8.10;6.13;;;;;;;19.76;100.00;98160.88;4175631;28;20629;-76
2023/08/18 05:18:46;;;;;;;8.23;5.67;;;;;;;19.80;100.00;98169.31;4168131;28;20683;-76
2023/08/18 05:20:49;;;;;;;6.97;5.80;;;;;;;19.86;100.00;98164.25;4175509;28;20625;-76
2023/08/18 05:22:54;;;;;;;8.43;5.90;;;;;;;19.94;100.00;98174.88;4169303;28;20622;-75
2023/08/18 05:24:57;;;;;;;7.00;5.53;;;;;;;20.04;100.00;98172.91;4169751;28;20622;-76
2023/08/18 05:27:00;;;;;;;12.23;6.60;;;;;;;20.21;100.00;98177.28;4174540;28;20628;-76
2023/08/18 05:29:04;;;;;;;10.30;6.87;;;;;;;20.36;100.00;98176.47;4173706;28;20624;-75
2023/08/18 05:31:09;;;;;;;8.93;6.70;;;;;;;20.52;100.00;98185.28;4174689;28;21196;-76
2023/08/18 05:33:11;;;;;;;9.30;6.60;;;;;;;20.71;100.00;98181.53;4172408;28;21020;-75
2023/08/18 05:35:14;;;;;;;7.90;5.77;;;;;;;20.90;98.89;98184.69;4167665;28;20711;-76
2023/08/18 05:37:17;;;;;;;9.03;5.63;;;;;;;21.07;97.73;98186.31;4169364;28;20647;-78
2023/08/18 05:39:20;;;;;;;7.43;5.83;;;;;;;21.27;97.79;98187.63;4170372;28;21310;-76
2023/08/18 05:41:24;;;;;;;6.50;5.50;;;;;;;21.44;96.98;98190.06;4173605;28;20629;-76
2023/08/18 05:43:27;;;;;;;7.47;5.10;;;;;;;21.62;96.22;98183.59;4170963;28;21241;-76
2023/08/18 05:45:30;;;;;;;10.23;5.97;;;;;;;21.84;95.85;98186.31;4172374;28;21204;-76
2023/08/18 05:47:34;;;;;;;9.50;5.07;;;;;;;22.04;94.58;98184.94;4175869;28;20649;-76
2023/08/18 05:49:38;;;;;;;8.10;5.37;;;;;;;22.26;93.71;98187.66;4175292;28;20654;-77
2023/08/18 05:51:44;;;;;;;6.40;4.67;;;;;;;22.46;91.90;98193.34;4169568;28;20727;-76
2023/08/18 05:53:47;;;;;;;5.40;4.67;;;;;;;22.65;91.62;98190.25;4172081;28;20885;-76
2023/08/18 05:55:51;;;;;;;6.67;5.33;;;;;;;22.83;91.68;98187.09;4160388;28;20633;-84
2023/08/18 05:57:54;;;;;;;7.10;5.33;;;;;;;23.01;91.39;98194.81;4174327;28;20711;-84
2023/08/18 05:59:57;;;;;;;8.50;5.43;;;;;;;23.16;90.02;98195.69;4170189;28;20633;-84
2023/08/18 06:02:00;;;;;;;6.50;5.00;;;;;;;23.32;89.59;98197.19;4169800;28;20644;-83
2023/08/18 06:04:05;;;;;;;6.83;5.13;;;;;;;23.49;88.62;98192.53;4171766;28;20755;-84
2023/08/18 06:06:08;;;;;;;6.30;4.57;;;;;;;23.68;87.20;98196.34;4176178;28;20650;-84
2023/08/18 06:08:11;;;;;;;7.60;4.90;;;;;;;23.82;87.38;98192.03;4171339;28;20635;-84
2023/08/18 06:10:14;;;;;;;7.30;4.87;;;;;;;24.00;86.46;98198.63;4176939;28;20997;-81
2023/08/18 06:12:17;;;;;;;6.10;4.50;;;;;;;24.18;87.48;98193.75;4161207;28;21052;-82
2023/08/18 06:14:21;;;;;;;7.03;4.60;;;;;;;24.36;85.95;98200.34;4169649;28;20703;-82
2023/08/18 06:16:24;;;;;;;6.17;4.27;;;;;;;24.51;85.21;98203.81;4169299;28;20623;-82
2023/08/18 06:18:27;;;;;;;5.07;4.03;;;;;;;24.68;85.33;98208.72;4174112;28;21051;-81
2023/08/18 06:20:31;;;;;;;7.77;4.60;;;;;;;24.82;84.15;98202.53;4167972;28;20649;-80
2023/08/18 06:22:33;;;;;;;4.90;4.07;;;;;;;25.01;84.61;98207.25;4171826;28;20674;-82
2023/08/18 06:24:37;;;;;;;11.27;5.87;;;;;;;25.17;83.66;98207.81;4160874;28;20628;-82
2023/08/18 06:26:40;;;;;;;6.43;4.40;;;;;;;25.33;83.56;98204.88;4170986;28;20783;-82
2023/08/18 06:28:43;;;;;;;6.93;4.73;;;;;;;25.49;83.33;98209.91;4155563;28;20728;-81
2023/08/18 06:30:46;;;;;;;6.63;4.50;;;;;;;25.65;82.85;98210.47;4174877;28;20635;-82
2023/08/18 06:32:50;;;;;;;6.47;4.40;;;;;;;25.78;82.30;98205.19;4166224;28;20968;-82
2023/08/18 06:34:54;;;;;;;5.70;4.43;;;;;;;25.81;81.02;98201.31;4173145;28;20645;-82
2023/08/18 06:36:57;;;;;;;4.90;4.20;;;;;;;25.83;80.66;98209.97;4162150;28;20632;-81
2023/08/18 06:39:00;;;;;;;12.10;4.93;;;;;;;25.81;80.48;98201.31;4173460;28;20633;-82
2023/08/18 06:41:03;;;;;;;5.30;4.77;;;;;;;25.90;81.99;98205.50;4168212;28;20663;-82
2023/08/18 06:43:07;;;;;;;4.57;4.07;;;;;;;26.07;81.26;98198.78;4179602;28;20620;-82
2023/08/18 06:45:10;;;;;;;5.50;4.20;;;;;;;26.20;79.99;98203.16;4174294;28;20636;-82
2023/08/18 06:47:13;;;;;;;8.57;4.83;;;;;;;26.25;78.53;98200.75;4168359;28;21215;-82
2023/08/18 06:49:16;;;;;;;4.90;4.30;;;;;;;26.29;79.34;98206.53;4166733;28;21220;-82
2023/08/18 06:51:19;;;;;;;5.20;4.33;;;;;;;26.41;81.79;98213.78;4171441;28;20624;-82
2023/08/18 06:53:24;;;;;;;6.40;4.57;;;;;;;26.48;79.37;98206.63;4172167;28;20625;-81
2023/08/18 06:55:28;;;;;;;6.60;4.30;;;;;;;26.54;78.38;98208.50;4162674;28;20671;-81
2023/08/18 06:57:51;;;;;;;5.57;3.87;;;;;;;26.57;78.55;98206.22;4168814;28;20624;-82
2023/08/18 06:59:54;;;;;;;7.30;4.80;;;;;;;26.66;77.96;98204.22;4178317;28;21303;-82
2023/08/18 07:01:57;;;;;;;5.43;3.83;;;;;;;26.90;80.08;98209.00;4171083;28;21080;-82
2023/08/18 07:04:00;;;;;;;6.80;4.97;;;;;;;27.07;79.23;98209.25;4168446;28;21268;-82
2023/08/18 07:06:03;;;;;;;4.50;3.80;;;;;;;27.27;79.59;98210.13;4177036;28;20642;-82
2023/08/18 07:08:07;;;;;;;5.87;4.20;;;;;;;27.47;77.66;98216.28;4155621;28;21252;-82
2023/08/18 07:10:12;;;;;;;4.53;3.97;;;;;;;27.64;77.82;98217.53;4169283;28;20626;-82
2023/08/18 07:12:15;;;;;;;4.80;3.80;;;;;;;27.76;77.38;98211.34;4171876;28;20744;-82
2023/08/18 07:14:18;;;;;;;4.40;4.00;;;;;;;27.88;75.81;98208.84;4153026;28;20710;-81
2023/08/18 07:16:22;;;;;;;4.93;3.90;;;;;;;28.00;76.88;98209.84;4168253;28;20726;-82
2023/08/18 07:18:25;;;;;;;6.43;3.93;;;;;;;28.11;73.73;98208.19;4168621;28;21287;-80
2023/08/18 07:20:28;;;;;;;6.53;3.80;;;;;;;28.14;74.71;98215.00;4179080;28;21113;-81
2023/08/18 07:22:31;;;;;;;5.30;3.80;;;;;;;28.26;74.23;98208.75;4169812;28;20628;-82
2023/08/18 07:24:35;;;;;;;5.10;3.53;;;;;;;28.48;77.15;98215.50;4162289;28;21479;-82
2023/08/18 07:26:39;;;;;;;5.40;4.10;;;;;;;28.63;75.20;98218.72;4169937;28;20729;-82
2023/08/18 07:28:42;;;;;;;6.07;4.77;;;;;;;28.72;75.15;98218.28;4168931;28;20617;-79
2023/08/18 07:30:45;;;;;;;3.87;3.47;;;;;;;28.87;75.50;98213.47;4176704;28;20631;-81
2023/08/18 07:32:48;;;;;;;4.37;3.47;;;;;;;28.93;73.13;98212.59;4171399;28;20671;-82
2023/08/18 07:34:51;;;;;;;4.80;3.70;;;;;;;29.00;73.26;98208.81;4170921;28;20636;-82
2023/08/18 07:36:54;;;;;;;6.37;3.40;;;;;;;29.14;73.60;98215.75;4174294;28;21093;-80
2023/08/18 07:38:58;;;;;;;4.80;3.53;;;;;;;29.34;73.09;98211.06;4158480;28;20634;-81
2023/08/18 07:41:01;;;;;;;4.30;3.33;;;;;;;29.40;70.22;98207.50;4158223;28;20731;-81
2023/08/18 07:43:05;;;;;;;3.50;3.20;;;;;;;29.46;69.68;98212.00;4171487;28;20637;-82
2023/08/18 07:45:08;;;;;;;5.03;3.20;;;;;;;29.60;71.98;98219.75;4187932;28;20651;-81
2023/08/18 07:47:11;;;;;;;4.10;3.13;;;;;;;29.75;72.23;98208.66;4171473;28;20633;-82
2023/08/18 07:49:16;;;;;;;3.37;2.80;;;;;;;29.88;72.12;98205.88;4167282;28;20607;-82
2023/08/18 07:51:19;;;;;;;4.20;2.70;;;;;;;30.03;72.04;98207.97;4178848;28;21070;-81
2023/08/18 07:53:22;;;;;;;4.10;2.70;;;;;;;30.14;68.81;98209.91;4167605;28;20681;-81
2023/08/18 07:55:25;;;;;;;3.43;2.40;;;;;;;30.21;68.07;98213.34;4171393;28;20692;-82
2023/08/18 07:57:29;;;;;;;3.83;2.70;;;;;;;30.35;72.33;98209.50;4167741;28;20636;-82
2023/08/18 07:59:33;;;;;;;5.77;2.60;;;;;;;30.48;71.62;98202.06;4171692;28;20615;-82
2023/08/18 08:01:36;;;;;;;3.03;2.70;;;;;;;30.61;69.33;98209.16;4173562;28;20632;-82
2023/08/18 08:03:39;;;;;;;3.70;2.27;;;;;;;30.73;70.26;98208.19;4168867;28;20643;-81
2023/08/18 08:05:43;;;;;;;2.63;2.37;;;;;;;30.84;69.59;98201.16;4168635;28;20694;-82
2023/08/18 08:07:46;;;;;;;4.90;2.60;;;;;;;30.89;64.54;98198.66;4168557;28;20626;-82
2023/08/18 08:09:49;;;;;;;2.97;2.30;;;;;;;30.94;65.87;98197.75;4168417;28;20632;-82
2023/08/18 08:11:53;;;;;;;2.97;2.13;;;;;;;30.99;65.31;98192.47;4170182;28;20653;-82
2023/08/18 08:13:56;;;;;;;2.57;2.17;;;;;;;30.98;63.69;98190.81;4166173;28;20995;-80
2023/08/18 08:16:00;;;;;;;3.03;2.43;;;;;;;31.11;64.50;98192.53;4171582;28;20668;-73
2023/08/18 08:18:04;;;;;;;2.23;1.83;;;;;;;31.23;66.46;98201.44;4170128;28;20734;-74
2023/08/18 08:20:15;;;;;;;2.93;2.20;;;;;;;31.30;65.02;98202.97;4163572;28;20621;-74
2023/08/18 08:22:18;;;;;;;5.07;1.90;;;;;;;31.36;66.86;98195.84;4187492;28;20646;-74
2023/08/18 08:24:21;;;;;;;3.20;1.87;;;;;;;31.44;68.30;98194.47;4175540;28;20987;-74
2023/08/18 08:26:24;;;;;;;2.70;2.10;;;;;;;31.54;65.88;98196.59;4167807;28;20625;-75
2023/08/18 08:28:27;;;;;;;2.33;1.70;;;;;;;31.63;64.37;98197.91;4168834;28;21218;-74
2023/08/18 08:30:31;;;;;;;3.17;2.47;;;;;;;31.71;65.02;98200.25;4170491;28;21247;-75
2023/08/18 08:32:40;;;;;;;3.40;2.43;;;;;;;31.76;62.51;98192.28;4167863;28;21251;-74
2023/08/18 08:34:48;;;;;;;3.47;2.30;;;;;;;31.83;61.98;98192.97;4169295;28;20691;-74
2023/08/18 08:36:51;;;;;;;2.60;1.63;;;;;;;31.84;64.31;98195.44;4154207;28;20760;-74
2023/08/18 08:38:54;;;;;;;2.83;2.13;;;;;;;31.87;65.82;98191.44;4171947;28;20628;-76
2023/08/18 08:40:58;;;;;;;2.20;1.73;;;;;;;31.90;62.35;98186.38;4177229;28;21058;-74
2023/08/18 08:43:00;;;;;;;2.23;1.90;;;;;;;31.91;62.91;98185.34;4168779;28;21073;-75
2023/08/18 08:45:07;;;;;;;3.57;2.00;;;;;;;31.98;62.22;98195.00;4173704;28;21230;-74
2023/08/18 08:47:15;;;;;;;2.93;1.90;;;;;;;32.06;62.96;98191.13;4171188;28;20662;-75
2023/08/18 08:49:21;;;;;;;2.43;1.80;;;;;;;32.17;63.80;98195.66;4167988;28;20636;-75
2023/08/18 08:51:28;;;;;;;3.30;2.23;;;;;;;32.24;61.96;98190.97;4174495;28;21069;-74
2023/08/18 08:53:36;;;;;;;2.27;1.60;;;;;;;32.30;65.42;98188.13;4175209;28;20633;-75
2023/08/18 08:55:40;;;;;;;2.27;2.00;;;;;;;32.38;62.36;98177.75;4178142;28;20612;-75
2023/08/18 08:57:43;;;;;;;3.17;1.90;;;;;;;32.41;61.21;98188.06;4169105;28;20655;-74
2023/08/18 08:59:46;;;;;;;2.20;1.60;;;;;;;32.47;65.68;98187.16;4165093;28;20634;-74
2023/08/18 09:01:51;;;;;;;2.67;1.80;;;;;;;32.48;64.03;98185.28;4169327;28;20630;-74
2023/08/18 09:03:54;;;;;;;2.10;1.90;;;;;;;32.43;63.94;98190.56;4160408;28;21269;-75
2023/08/18 09:05:59;;;;;;;3.27;2.20;;;;;;;32.42;63.18;98180.81;4176318;28;20620;-75
2023/08/18 09:08:02;;;;;;;1.90;1.60;;;;;;;32.43;62.28;98191.41;4170330;28;20693;-75
2023/08/18 09:10:06;;;;;;;2.20;1.93;;;;;;;32.43;63.77;98190.56;4171292;28;20732;-74
2023/08/18 09:12:10;;;;;;;3.17;1.70;;;;;;;32.47;63.61;98189.03;4168191;28;20621;-75
2023/08/18 09:14:13;;;;;;;2.00;1.70;;;;;;;32.45;61.85;98183.88;4166165;28;20634;-74
2023/08/18 09:16:17;;;;;;;2.20;1.70;;;;;;;32.39;60.88;98184.81;4169325;28;20671;-74
2023/08/18 09:18:20;;;;;;;2.80;1.80;;;;;;;32.44;60.25;98181.41;4172012;28;20641;-75
2023/08/18 09:20:23;;;;;;;2.13;1.53;;;;;;;32.45;58.49;98188.47;4168731;28;20613;-74
2023/08/18 09:22:31;;;;;;;2.50;1.87;;;;;;;32.45;58.24;98188.47;4165717;28;21121;-75
2023/08/18 09:24:36;;;;;;;2.20;1.70;;;;;;;32.44;58.29;98184.13;4165898;28;20625;-75
2023/08/18 09:26:40;;;;;;;3.50;2.00;;;;;;;32.42;59.48;98181.63;4164025;28;20736;-82
2023/08/18 09:28:47;;;;;;;2.47;1.70;;;;;;;32.52;61.93;98186.44;4155841;28;20629;-82
2023/08/18 09:30:50;;;;;;;3.97;1.60;;;;;;;32.53;60.28;98190.78;4171014;28;20999;-81
2023/08/18 09:32:57;;;;;;;1.90;1.50;;;;;;;32.56;60.68;98183.00;4175659;28;20732;-82
2023/08/18 09:35:00;;;;;;;2.50;1.83;;;;;;;32.63;61.26;98188.31;4169250;28;20641;-83
2023/08/18 09:37:04;;;;;;;3.00;1.73;;;;;;;32.64;61.79;98189.91;4169293;28;20656;-84
2023/08/18 09:39:09;;;;;;;3.33;1.87;;;;;;;32.69;63.26;98181.94;4169161;28;20644;-82